Time;durP1;ratioP1;P1;durP2;ratioP2;P2;SDS_P1;SDS_P2;PMS_P1;PMS_P2;Temp;Humidity;BMP_temperature;BMP_pressure;BME280_temperature;BME280_humidity;BME280_pressure;Samples;Min_cycle;Max_cycle;Signal;HPM_P1;HPM_P2
2023/07/05 00:01:22;;;;;;;14.32;8.55;;;;;;;14.67;100.00;100324.72;5052849;28;20029;-47
2023/07/05 00:03:47;;;;;;;12.90;7.63;;;;;;;14.63;100.00;100305.69;5052986;28;20024;-49
2023/07/05 00:06:13;;;;;;;11.75;7.78;;;;;;;14.64;100.00;100302.25;5052419;28;20051;-49
2023/07/05 00:08:40;;;;;;;11.63;7.75;;;;;;;14.60;100.00;100290.97;5052647;28;20055;-46
2023/07/05 00:11:07;;;;;;;13.68;7.13;;;;;;;14.60;100.00;100284.91;5052927;28;20035;-48
2023/07/05 00:13:33;;;;;;;10.90;7.20;;;;;;;14.60;100.00;100266.75;5051690;28;20366;-47
2023/07/05 00:16:01;;;;;;;13.65;7.13;;;;;;;14.58;100.00;100256.38;5052893;28;20035;-47
2023/07/05 00:18:28;;;;;;;12.85;7.07;;;;;;;14.57;100.00;100264.16;5052403;28;20055;-48
2023/07/05 00:20:58;;;;;;;14.80;7.25;;;;;;;14.56;100.00;100257.25;5052405;28;20047;-46
2023/07/05 00:23:24;;;;;;;11.05;7.28;;;;;;;14.55;100.00;100245.13;5052039;28;20049;-48
2023/07/05 00:25:49;;;;;;;12.18;6.97;;;;;;;14.56;100.00;100231.31;5052491;28;20526;-45
2023/07/05 00:28:15;;;;;;;12.10;6.63;;;;;;;14.56;100.00;100220.94;5052237;28;20025;-49
2023/07/05 00:30:45;;;;;;;13.15;7.07;;;;;;;14.54;100.00;100207.97;5052734;28;20104;-48
2023/07/05 00:33:10;;;;;;;13.18;6.60;;;;;;;14.52;100.00;100199.31;5052062;28;20051;-49
2023/07/05 00:35:36;;;;;;;10.98;6.43;;;;;;;14.51;100.00;100201.91;5052491;28;20026;-49
2023/07/05 00:38:01;;;;;;;9.68;6.05;;;;;;;14.48;100.00;100193.25;5052667;28;20112;-47
2023/07/05 00:40:27;;;;;;;9.18;6.40;;;;;;;14.49;100.00;100184.63;5051690;28;20108;-48
2023/07/05 00:42:52;;;;;;;9.45;6.07;;;;;;;14.46;100.00;100158.69;5052406;28;20053;-48
2023/07/05 00:45:18;;;;;;;10.18;5.70;;;;;;;14.45;100.00;100133.63;5052457;28;20056;-46
2023/07/05 00:47:45;;;;;;;9.35;5.82;;;;;;;14.44;100.00;100151.75;5051581;28;20050;-48
2023/07/05 00:50:21;;;;;;;10.73;5.95;;;;;;;14.41;100.00;100170.78;5052602;28;20028;-47
2023/07/05 00:52:47;;;;;;;10.25;6.22;;;;;;;14.42;100.00;100172.50;5052244;28;20025;-47
2023/07/05 00:55:13;;;;;;;10.70;5.90;;;;;;;14.40;100.00;100163.84;5051690;28;20032;-48
2023/07/05 00:57:42;;;;;;;10.45;6.13;;;;;;;14.41;100.00;100157.81;5052108;28;20082;-49
2023/07/05 01:00:12;;;;;;;10.30;5.47;;;;;;;14.40;100.00;100156.06;5052496;28;20021;-45
2023/07/05 01:02:40;;;;;;;7.65;5.80;;;;;;;14.41;100.00;100150.03;5051238;28;20380;-49
2023/07/05 01:05:08;;;;;;;9.40;5.38;;;;;;;14.42;100.00;100145.69;5052421;28;20060;-48
2023/07/05 01:07:34;;;;;;;10.90;6.13;;;;;;;14.43;100.00;100131.88;5051898;28;20120;-48
2023/07/05 01:10:00;;;;;;;10.82;5.93;;;;;;;14.45;100.00;100145.72;5051555;28;20435;-50
2023/07/05 01:12:30;;;;;;;8.82;5.45;;;;;;;14.45;100.00;100141.41;5051824;28;20021;-47
2023/07/05 01:15:21;;;;;;;10.52;5.88;;;;;;;14.46;100.00;100132.75;5051856;28;20025;-49
2023/07/05 01:18:09;;;;;;;10.85;6.10;;;;;;;14.48;100.00;100135.34;5051918;28;20132;-49
2023/07/05 01:20:50;;;;;;;12.85;5.68;;;;;;;14.48;100.00;100131.00;5051869;28;20040;-50
2023/07/05 01:23:25;;;;;;;9.50;6.22;;;;;;;14.49;100.00;100129.31;5051120;28;20444;-48
2023/07/05 01:26:25;;;;;;;8.38;5.57;;;;;;;14.51;100.00;100130.16;5052517;28;20108;-48
2023/07/05 01:29:30;;;;;;;9.52;5.47;;;;;;;14.53;100.00;100132.78;5051941;28;20080;-49
2023/07/05 01:32:03;;;;;;;9.32;5.68;;;;;;;14.56;100.00;100141.41;5051722;28;20128;-48
2023/07/05 01:34:44;;;;;;;10.80;5.32;;;;;;;14.57;100.00;100124.13;5052361;28;20079;-48
2023/07/05 01:37:22;;;;;;;8.35;5.72;;;;;;;14.61;100.00;100112.91;5054880;28;20112;-49
2023/07/05 01:39:48;;;;;;;8.88;5.68;;;;;;;14.63;100.00;100121.56;5055810;28;20025;-49
2023/07/05 01:42:13;;;;;;;9.55;5.43;;;;;;;14.63;100.00;100140.56;5055704;28;20108;-49
2023/07/05 01:44:38;;;;;;;9.95;5.05;;;;;;;14.62;100.00;100143.16;5054271;28;20388;-49
2023/07/05 01:47:11;;;;;;;9.57;4.97;;;;;;;14.61;100.00;100144.03;5055481;28;20025;-47
2023/07/05 01:50:21;;;;;;;9.15;4.97;;;;;;;14.63;100.00;100139.72;5054934;28;20061;-49
2023/07/05 01:53:13;;;;;;;9.40;5.03;;;;;;;14.61;100.00;100147.47;5048869;28;20041;-47
2023/07/05 01:55:46;;;;;;;8.82;4.95;;;;;;;14.64;100.00;100141.44;5046591;28;20045;-49
2023/07/05 01:58:14;;;;;;;9.82;4.82;;;;;;;14.62;100.00;100151.78;5054482;28;20032;-48
2023/07/05 02:00:41;;;;;;;7.45;4.82;;;;;;;14.60;100.00;100144.88;5055118;28;20040;-46
2023/07/05 02:03:11;;;;;;;8.25;4.40;;;;;;;14.59;100.00;100153.50;5055244;28;20070;-45
2023/07/05 02:05:37;;;;;;;6.07;3.80;;;;;;;14.57;100.00;100165.63;5053962;28;20104;-48
2023/07/05 02:08:02;;;;;;;9.07;4.18;;;;;;;14.53;100.00;100167.34;5055066;28;20096;-48
2023/07/05 02:10:28;;;;;;;7.28;4.32;;;;;;;14.50;100.00;100182.91;5054744;28;20424;-49
2023/07/05 02:12:56;;;;;;;7.10;3.95;;;;;;;14.47;100.00;100196.72;5053999;28;20037;-45
2023/07/05 02:15:21;;;;;;;6.75;4.10;;;;;;;14.40;100.00;100194.97;5055019;28;20032;-46
2023/07/05 02:17:46;;;;;;;7.72;3.88;;;;;;;14.32;100.00;100202.72;5054468;28;20037;-46
2023/07/05 02:20:12;;;;;;;5.30;2.83;;;;;;;14.22;100.00;100205.28;5054214;28;20029;-49
2023/07/05 02:22:37;;;;;;;4.68;3.10;;;;;;;14.07;100.00;100201.75;5054222;28;20089;-48
2023/07/05 02:25:03;;;;;;;5.80;3.08;;;;;;;13.92;100.00;100222.41;5054577;28;20033;-48
2023/07/05 02:27:29;;;;;;;5.55;3.15;;;;;;;13.79;100.00;100222.31;5053856;28;20469;-50
2023/07/05 02:29:55;;;;;;;7.90;3.20;;;;;;;13.67;100.00;100232.56;5054630;28;20043;-48
2023/07/05 02:32:22;;;;;;;6.30;3.33;;;;;;;13.54;100.00;100233.34;5054374;28;20540;-47
2023/07/05 02:34:47;;;;;;;5.88;3.35;;;;;;;13.39;100.00;100237.56;5053947;28;20063;-50
2023/07/05 02:37:14;;;;;;;4.82;3.22;;;;;;;13.31;100.00;100241.75;5054542;28;20068;-49
2023/07/05 02:39:39;;;;;;;7.10;4.07;;;;;;;13.25;100.00;100239.13;5053801;28;20033;-45
2023/07/05 02:42:05;;;;;;;7.15;3.58;;;;;;;13.21;100.00;100247.69;5054017;28;20028;-47
2023/07/05 02:44:31;;;;;;;8.02;3.88;;;;;;;13.15;100.00;100257.13;5054151;28;20037;-47
2023/07/05 02:46:56;;;;;;;8.10;3.80;;;;;;;13.11;100.00;100247.63;5053368;28;20036;-48
2023/07/05 02:49:21;;;;;;;8.25;3.88;;;;;;;13.03;100.00;100254.44;5054426;28;20032;-50
2023/07/05 02:51:47;;;;;;;11.20;4.00;;;;;;;12.94;100.00;100238.84;5053946;28;20167;-47
2023/07/05 02:54:12;;;;;;;7.30;4.00;;;;;;;12.89;100.00;100240.53;5053332;28;20427;-46
2023/07/05 02:56:38;;;;;;;10.85;4.32;;;;;;;12.84;100.00;100248.22;5053751;28;20027;-49
2023/07/05 02:59:03;;;;;;;9.40;4.30;;;;;;;12.79;100.00;100245.56;5054154;28;20051;-48
2023/07/05 03:01:28;;;;;;;7.40;4.13;;;;;;;12.76;100.00;100244.69;5053093;28;20025;-48
2023/07/05 03:03:54;;;;;;;8.02;4.15;;;;;;;12.72;100.00;100243.78;5053838;28;20024;-47
2023/07/05 03:06:19;;;;;;;9.20;4.20;;;;;;;12.70;100.00;100239.44;5053949;28;20058;-47
2023/07/05 03:08:44;;;;;;;8.40;4.28;;;;;;;12.65;100.00;100241.97;5052683;28;20028;-46
2023/07/05 03:11:10;;;;;;;6.60;4.22;;;;;;;12.58;100.00;100246.22;5053671;28;20033;-48
2023/07/05 03:13:36;;;;;;;7.10;4.30;;;;;;;12.51;100.00;100250.44;5053533;28;20403;-48
2023/07/05 03:16:02;;;;;;;8.07;4.43;;;;;;;12.46;100.00;100251.22;5052906;28;20024;-48
2023/07/05 03:18:28;;;;;;;7.30;4.53;;;;;;;12.39;100.00;100252.88;5053313;28;20071;-45
2023/07/05 03:20:54;;;;;;;9.23;4.93;;;;;;;12.41;100.00;100258.03;5053277;28;20382;-48
2023/07/05 03:23:20;;;;;;;8.50;4.55;;;;;;;12.38;100.00;100251.13;5052749;28;20136;-48
2023/07/05 03:26:00;;;;;;;9.50;4.47;;;;;;;12.39;100.00;100255.44;5053120;28;20420;-47
2023/07/05 03:28:28;;;;;;;10.75;5.15;;;;;;;12.39;100.00;100250.28;5052996;28;20033;-48
2023/07/05 03:31:11;;;;;;;9.52;4.60;;;;;;;12.44;100.00;100250.34;5052815;28;20032;-47
2023/07/05 03:33:37;;;;;;;10.00;5.07;;;;;;;12.48;100.00;100255.56;5053049;28;20435;-48
2023/07/05 03:36:11;;;;;;;8.57;5.28;;;;;;;12.48;100.00;100260.72;5052523;28;20032;-48
2023/07/05 03:38:37;;;;;;;9.98;5.82;;;;;;;12.52;100.00;100251.28;5053252;28;20053;-44
2023/07/05 03:41:06;;;;;;;10.45;5.82;;;;;;;12.53;100.00;100253.03;5053399;28;20075;-46
2023/07/05 03:43:36;;;;;;;9.63;5.55;;;;;;;12.56;100.00;100253.06;5052093;28;20125;-47
2023/07/05 03:46:03;;;;;;;8.63;5.55;;;;;;;12.59;100.00;100258.28;5053279;28;20021;-46
2023/07/05 03:48:42;;;;;;;9.75;5.80;;;;;;;12.62;100.00;100252.28;5052815;28;20120;-47
2023/07/05 03:51:10;;;;;;;8.73;5.97;;;;;;;12.63;100.00;100257.47;5052580;28;20025;-48
2023/07/05 03:53:36;;;;;;;9.80;5.47;;;;;;;12.64;100.00;100259.22;5052624;28;20060;-46
2023/07/05 03:56:03;;;;;;;9.32;5.57;;;;;;;12.65;100.00;100266.13;5052987;28;20064;-44
2023/07/05 03:58:29;;;;;;;;;;;;;;;12.71;100.00;100261.88;5052099;28;20040;-44
2023/07/05 04:01:09;;;;;;;11.00;5.90;;;;;;;12.66;100.00;100248.88;5052980;28;19913;-43
2023/07/05 04:03:35;;;;;;;9.95;5.03;;;;;;;12.65;100.00;100252.31;5052649;28;20028;-48
2023/07/05 04:06:02;;;;;;;9.02;5.90;;;;;;;12.64;100.00;100246.28;5052880;28;20112;-48
2023/07/05 04:08:27;;;;;;;10.18;5.80;;;;;;;12.65;100.00;100247.13;5052601;28;20021;-47
2023/07/05 04:10:52;;;;;;;8.05;5.55;;;;;;;12.68;100.00;100236.84;5052682;28;20055;-43
2023/07/05 04:13:18;;;;;;;9.10;5.50;;;;;;;12.67;100.00;100246.31;5052478;28;20024;-44
2023/07/05 04:15:43;;;;;;;10.02;5.97;;;;;;;12.68;100.00;100248.03;5052428;28;20036;-45
2023/07/05 04:18:08;;;;;;;11.52;6.10;;;;;;;12.71;100.00;100241.19;5052385;28;20029;-42
2023/07/05 04:20:36;;;;;;;9.45;5.72;;;;;;;12.73;100.00;100254.97;5052573;28;20112;-45
2023/07/05 04:23:02;;;;;;;9.82;5.53;;;;;;;12.73;100.00;100244.63;5052669;28;20045;-45
2023/07/05 04:25:27;;;;;;;8.57;5.38;;;;;;;12.76;100.00;100236.94;5051643;28;20021;-46
2023/07/05 04:27:52;;;;;;;10.45;5.43;;;;;;;12.79;100.00;100242.13;5052616;28;20381;-47
2023/07/05 04:30:18;;;;;;;11.77;6.00;;;;;;;12.81;100.00;100251.63;5052553;28;20025;-43
2023/07/05 04:32:43;;;;;;;12.15;5.95;;;;;;;12.85;100.00;100256.00;5051519;28;20103;-48
2023/07/05 04:35:08;;;;;;;12.93;6.25;;;;;;;12.89;100.00;100253.44;5052763;28;20104;-47
2023/07/05 04:37:34;;;;;;;11.43;6.20;;;;;;;12.92;100.00;100250.88;5052563;28;20053;-47
2023/07/05 04:39:59;;;;;;;11.82;5.80;;;;;;;12.93;100.00;100248.31;5051912;28;20021;-47
2023/07/05 04:42:24;;;;;;;12.05;6.28;;;;;;;12.95;100.00;100261.25;5052248;28;20427;-47
2023/07/05 04:44:50;;;;;;;13.30;6.05;;;;;;;12.95;100.00;100241.44;5052447;28;20119;-47
2023/07/05 04:47:16;;;;;;;8.32;5.40;;;;;;;12.95;100.00;100261.25;5052027;28;20098;-44
2023/07/05 04:49:41;;;;;;;9.43;5.53;;;;;;;12.96;100.00;100252.66;5052370;28;20530;-43
2023/07/05 04:52:07;;;;;;;10.65;6.25;;;;;;;12.97;100.00;100254.38;5052382;28;20415;-48
2023/07/05 04:54:32;;;;;;;11.43;6.00;;;;;;;12.99;100.00;100257.88;5051660;28;20060;-46
2023/07/05 04:56:58;;;;;;;9.73;5.72;;;;;;;12.99;100.00;100245.78;5052432;28;20086;-48
2023/07/05 04:59:23;;;;;;;9.98;5.90;;;;;;;12.96;100.00;100252.66;5051790;28;20021;-49
2023/07/05 05:01:48;;;;;;;11.70;5.47;;;;;;;12.94;100.00;100251.78;5051952;28;20021;-46
2023/07/05 05:04:13;;;;;;;12.57;5.68;;;;;;;12.95;100.00;100256.97;5052355;28;20035;-48
2023/07/05 05:06:39;;;;;;;11.20;5.35;;;;;;;12.96;100.00;100247.47;5051829;28;20021;-46
2023/07/05 05:09:04;;;;;;;11.45;5.22;;;;;;;12.98;100.00;100250.97;5051906;28;20389;-47
2023/07/05 05:11:30;;;;;;;13.40;5.65;;;;;;;13.02;100.00;100268.22;5055764;28;20033;-46
2023/07/05 05:13:55;;;;;;;15.65;6.22;;;;;;;13.05;100.00;100257.06;5055700;28;20113;-48
2023/07/05 05:16:20;;;;;;;10.73;5.47;;;;;;;13.09;100.00;100264.88;5055488;28;20021;-48
2023/07/05 05:18:46;;;;;;;11.40;5.15;;;;;;;13.07;100.00;100270.88;5055985;28;20021;-43
2023/07/05 05:21:11;;;;;;;11.18;5.10;;;;;;;13.07;100.00;100263.13;5055676;28;20041;-49
2023/07/05 05:23:37;;;;;;;9.93;5.43;;;;;;;13.07;100.00;100253.63;5054873;28;20037;-48
2023/07/05 05:26:03;;;;;;;8.93;5.00;;;;;;;13.07;100.00;100269.16;5055827;28;20063;-47
2023/07/05 05:28:30;;;;;;;13.40;5.22;;;;;;;13.09;100.00;100264.88;5054785;28;20024;-45
2023/07/05 05:31:10;;;;;;;7.47;4.43;;;;;;;13.10;100.00;100264.00;5050328;28;20033;-49
2023/07/05 05:33:36;;;;;;;8.70;5.35;;;;;;;13.09;100.00;100264.88;5052961;28;20096;-44
2023/07/05 05:36:02;;;;;;;8.65;4.70;;;;;;;13.09;100.00;100264.88;5053503;28;20025;-48
2023/07/05 05:38:28;;;;;;;9.93;5.43;;;;;;;13.07;100.00;100263.97;5055346;28;20064;-48
2023/07/05 05:41:00;;;;;;;9.05;4.82;;;;;;;13.04;100.00;100266.53;5055008;28;20061;-47
2023/07/05 05:43:25;;;;;;;14.88;5.40;;;;;;;13.03;100.00;100267.38;5053349;28;20025;-43
2023/07/05 05:45:51;;;;;;;8.20;4.72;;;;;;;13.00;100.00;100275.97;5055419;28;20039;-47
2023/07/05 05:48:16;;;;;;;11.77;5.40;;;;;;;13.05;100.00;100272.56;5055387;28;20020;-43
2023/07/05 05:50:42;;;;;;;9.95;5.03;;;;;;;13.05;100.00;100265.66;5054686;28;20083;-44
2023/07/05 05:53:10;;;;;;;11.13;5.22;;;;;;;13.05;100.00;100273.44;5055337;28;20025;-49
2023/07/05 05:55:37;;;;;;;8.88;4.93;;;;;;;12.99;100.00;100281.16;5054783;28;20029;-48
2023/07/05 05:58:04;;;;;;;10.93;4.97;;;;;;;12.93;100.00;100276.75;5054768;28;20048;-50
2023/07/05 06:00:29;;;;;;;8.80;4.40;;;;;;;12.83;100.00;100283.56;5055096;28;20063;-44
2023/07/05 06:02:56;;;;;;;11.07;5.05;;;;;;;12.74;100.00;100274.81;5054918;28;20048;-47
2023/07/05 06:05:21;;;;;;;12.68;5.13;;;;;;;12.70;100.00;100310.09;5054589;28;20028;-44
2023/07/05 06:07:47;;;;;;;9.27;4.90;;;;;;;12.73;100.00;100306.69;5054869;28;20021;-43
2023/07/05 06:10:12;;;;;;;9.40;4.45;;;;;;;12.73;100.00;100301.53;5054752;28;20017;-47
2023/07/05 06:12:41;;;;;;;9.05;4.78;;;;;;;12.74;100.00;100318.78;5054372;28;20123;-46
2023/07/05 06:15:10;;;;;;;10.10;4.78;;;;;;;12.73;100.00;100312.75;5055108;28;20029;-47
2023/07/05 06:17:36;;;;;;;12.05;5.00;;;;;;;12.69;100.00;100310.94;5054458;28;20025;-47
2023/07/05 06:20:02;;;;;;;7.78;4.40;;;;;;;12.63;100.00;100323.81;5054147;28;20433;-49
2023/07/05 06:22:28;;;;;;;11.55;4.97;;;;;;;12.48;100.00;100312.41;5054028;28;20047;-47
2023/07/05 06:24:53;;;;;;;10.32;4.65;;;;;;;12.38;100.00;100338.97;5053928;28;20112;-43
2023/07/05 06:27:18;;;;;;;8.90;4.90;;;;;;;12.33;100.00;100335.47;5054987;28;20033;-46
2023/07/05 06:29:44;;;;;;;11.02;4.95;;;;;;;12.37;100.00;100323.47;5054537;28;20033;-43
2023/07/05 06:32:09;;;;;;;7.93;3.97;;;;;;;12.44;100.00;100330.47;5053988;28;20029;-43
2023/07/05 06:34:34;;;;;;;10.13;3.83;;;;;;;12.55;100.00;100343.53;5054335;28;20385;-47
2023/07/05 06:37:00;;;;;;;7.82;4.25;;;;;;;12.59;100.00;100330.66;5054556;28;20032;-47
2023/07/05 06:39:25;;;;;;;6.05;4.00;;;;;;;12.67;100.00;100328.19;5053377;28;20049;-44
2023/07/05 06:41:50;;;;;;;10.07;4.22;;;;;;;12.85;100.00;100318.06;5054706;28;20024;-48
2023/07/05 06:44:15;;;;;;;7.65;3.60;;;;;;;12.97;100.00;100335.44;5053977;28;20040;-43
2023/07/05 06:46:41;;;;;;;10.25;3.80;;;;;;;12.98;100.00;100339.75;5053658;28;20037;-49
2023/07/05 06:49:06;;;;;;;11.88;4.07;;;;;;;13.17;100.00;100334.81;5054431;28;20017;-44
2023/07/05 06:51:31;;;;;;;9.18;4.00;;;;;;;13.24;100.00;100356.44;5053852;28;20068;-47
2023/07/05 06:53:57;;;;;;;8.85;3.70;;;;;;;13.46;100.00;100347.19;5053563;28;20112;-47
2023/07/05 06:56:22;;;;;;;10.23;3.72;;;;;;;13.52;100.00;100367.97;5054130;28;20051;-45
2023/07/05 06:58:47;;;;;;;10.07;4.18;;;;;;;13.54;98.72;100355.88;5054090;28;20048;-49
2023/07/05 07:01:13;;;;;;;12.55;3.70;;;;;;;13.60;97.96;100363.72;5049466;28;20060;-47
2023/07/05 07:03:38;;;;;;;10.23;4.07;;;;;;;13.62;99.04;100367.22;5050894;28;20041;-46
2023/07/05 07:06:04;;;;;;;9.55;3.47;;;;;;;13.71;97.01;100366.44;5051855;28;20444;-44
2023/07/05 07:08:35;;;;;;;6.72;3.38;;;;;;;13.96;95.61;100374.41;5052765;28;20475;-49
2023/07/05 07:11:04;;;;;;;10.68;3.30;;;;;;;14.14;95.82;100374.53;5054158;28;20074;-46
2023/07/05 07:13:30;;;;;;;9.45;3.28;;;;;;;14.03;93.71;100391.72;5053011;28;20179;-46
2023/07/05 07:16:00;;;;;;;6.78;3.45;;;;;;;13.91;95.01;100407.19;5053291;28;20112;-48
2023/07/05 07:18:25;;;;;;;7.10;3.30;;;;;;;13.78;95.97;100401.88;5053352;28;20100;-42
2023/07/05 07:20:53;;;;;;;12.18;3.28;;;;;;;13.67;96.66;100377.59;5053457;28;20106;-47
2023/07/05 07:23:18;;;;;;;11.05;3.40;;;;;;;13.64;97.73;100412.09;5052752;28;20496;-48
2023/07/05 07:25:43;;;;;;;6.50;3.22;;;;;;;13.68;98.59;100418.19;5053411;28;20035;-44
2023/07/05 07:28:09;;;;;;;6.88;3.20;;;;;;;13.75;100.00;100411.31;5052747;28;20036;-45
2023/07/05 07:30:34;;;;;;;7.13;3.35;;;;;;;13.75;99.73;100427.75;5053094;28;20029;-45
2023/07/05 07:32:59;;;;;;;13.43;3.38;;;;;;;13.66;100.00;100432.84;5052739;28;20039;-43
2023/07/05 07:35:25;;;;;;;8.15;3.40;;;;;;;13.38;100.00;100442.88;5052437;28;20021;-42
2023/07/05 07:37:50;;;;;;;7.60;3.83;;;;;;;13.14;100.00;100464.13;5053495;28;20369;-42
2023/07/05 07:40:15;;;;;;;8.18;4.07;;;;;;;12.83;100.00;100459.44;5053464;28;20115;-46
2023/07/05 07:42:40;;;;;;;9.43;4.07;;;;;;;12.62;100.00;100474.63;5052227;28;20054;-46
2023/07/05 07:45:06;;;;;;;6.57;4.00;;;;;;;12.48;100.00;100477.84;5053273;28;20032;-42
2023/07/05 07:47:31;;;;;;;7.80;4.18;;;;;;;12.35;100.00;100492.28;5052666;28;20022;-43
2023/07/05 07:49:57;;;;;;;7.25;4.32;;;;;;;12.29;100.00;100488.72;5052499;28;20458;-42
2023/07/05 07:52:22;;;;;;;8.35;4.53;;;;;;;12.22;100.00;100486.91;5052926;28;20033;-43
2023/07/05 07:54:47;;;;;;;9.27;4.97;;;;;;;12.30;100.00;100488.78;5052997;28;20107;-42
2023/07/05 07:57:13;;;;;;;8.98;4.97;;;;;;;12.28;100.00;100494.75;5052516;28;20024;-48
2023/07/05 07:59:41;;;;;;;10.50;5.47;;;;;;;12.27;100.00;100501.63;5052536;28;20066;-44
2023/07/05 08:02:11;;;;;;;9.77;5.20;;;;;;;12.35;100.00;100496.59;5052697;28;20033;-48
2023/07/05 08:04:45;;;;;;;9.68;5.45;;;;;;;12.38;100.00;100506.97;5051879;28;20028;-46
2023/07/05 08:07:10;;;;;;;9.05;5.03;;;;;;;12.33;100.00;100500.84;5053161;28;20052;-47
2023/07/05 08:09:36;;;;;;;9.55;5.65;;;;;;;12.34;100.00;100500.00;5052514;28;20465;-47
2023/07/05 08:12:01;;;;;;;12.50;6.30;;;;;;;12.34;100.00;100500.00;5052426;28;20039;-48
2023/07/05 08:14:28;;;;;;;14.18;5.88;;;;;;;12.40;100.00;100497.53;5052838;28;20033;-49
2023/07/05 08:16:53;;;;;;;10.65;6.05;;;;;;;12.61;100.00;100498.72;5052663;28;20021;-47
2023/07/05 08:19:20;;;;;;;10.02;5.00;;;;;;;12.64;100.00;100515.16;5052145;28;20032;-47
2023/07/05 08:21:46;;;;;;;13.55;5.35;;;;;;;12.79;100.00;100508.47;5052294;28;20053;-47
2023/07/05 08:24:13;;;;;;;10.60;5.20;;;;;;;12.80;100.00;100523.16;5052178;28;20044;-47
2023/07/05 08:26:38;;;;;;;10.85;5.18;;;;;;;12.80;100.00;100516.25;5052061;28;20052;-44
2023/07/05 08:29:04;;;;;;;9.65;5.38;;;;;;;12.88;100.00;100524.13;5052633;28;20409;-47
2023/07/05 08:31:29;;;;;;;10.60;5.18;;;;;;;13.09;100.00;100531.34;5051581;28;20035;-48
2023/07/05 08:33:55;;;;;;;11.23;6.07;;;;;;;13.23;100.00;100528.94;5052619;28;20079;-49
2023/07/05 08:36:32;;;;;;;12.75;6.05;;;;;;;13.62;100.00;100534.63;5052539;28;20112;-49
2023/07/05 08:38:59;;;;;;;11.57;6.22;;;;;;;14.05;100.00;100522.16;5052298;28;20021;-48
2023/07/05 08:41:43;;;;;;;12.57;6.00;;;;;;;14.22;100.00;100537.88;5052370;28;20037;-49
2023/07/05 08:44:11;;;;;;;11.60;5.43;;;;;;;14.36;100.00;100537.13;5053820;28;20033;-48
2023/07/05 08:46:38;;;;;;;12.45;5.43;;;;;;;14.67;100.00;100546.09;5055926;28;20080;-49
2023/07/05 08:49:12;;;;;;;;;;;;;;;14.71;100.00;100532.28;5057110;28;20041;-44
2023/07/05 08:51:39;;;;;;;10.30;5.15;;;;;;;14.70;100.00;100548.69;5056056;28;19912;-44
2023/07/05 08:54:10;;;;;;;8.55;5.07;;;;;;;14.87;100.00;100558.34;5056081;28;20086;-44
2023/07/05 08:56:41;;;;;;;10.02;5.13;;;;;;;15.11;100.00;100568.88;5056129;28;20025;-44
2023/07/05 08:59:45;;;;;;;10.85;5.25;;;;;;;15.23;99.61;100559.44;5056383;28;20025;-49
2023/07/05 09:02:14;;;;;;;11.77;4.53;;;;;;;15.39;98.49;100569.06;5034179;28;20133;-47
2023/07/05 09:04:39;;;;;;;11.52;4.97;;;;;;;15.62;98.28;100576.97;5052035;28;20041;-47
2023/07/05 09:07:24;;;;;;;10.43;4.80;;;;;;;15.92;97.15;100587.47;5055735;28;20087;-49
2023/07/05 09:09:53;;;;;;;12.68;4.88;;;;;;;16.04;94.95;100594.47;5056469;28;20029;-49
2023/07/05 09:12:29;;;;;;;10.35;4.72;;;;;;;16.11;93.16;100596.19;5055890;28;20488;-48
2023/07/05 09:15:06;;;;;;;10.95;4.55;;;;;;;16.22;92.59;100589.31;5055706;28;20112;-48
2023/07/05 09:17:36;;;;;;;11.90;4.63;;;;;;;16.28;90.70;100596.25;5055959;28;20534;-47
2023/07/05 09:20:20;;;;;;;11.25;4.22;;;;;;;16.38;90.96;100584.97;5056085;28;20105;-46
2023/07/05 09:22:47;;;;;;;10.52;3.63;;;;;;;16.47;87.68;100612.75;5055115;28;20102;-45
2023/07/05 09:25:18;;;;;;;11.52;3.95;;;;;;;16.57;85.11;100609.28;5056353;28;20029;-48
2023/07/05 09:27:49;;;;;;;12.45;4.03;;;;;;;16.72;83.64;100605.84;5054917;28;20052;-46
2023/07/05 09:30:25;;;;;;;15.57;4.57;;;;;;;16.61;82.55;100630.97;5056034;28;20029;-47
2023/07/05 09:33:22;;;;;;;14.35;3.80;;;;;;;16.60;83.62;100626.63;5055797;28;20080;-48
2023/07/05 09:35:48;;;;;;;10.02;3.95;;;;;;;16.74;82.81;100632.72;5053399;28;20059;-48
2023/07/05 09:38:17;;;;;;;11.77;3.70;;;;;;;16.83;82.33;100651.84;5055731;28;20373;-43
2023/07/05 09:40:47;;;;;;;10.23;3.75;;;;;;;16.93;81.06;100651.84;5055106;28;20063;-47
2023/07/05 09:43:19;;;;;;;10.10;3.80;;;;;;;17.17;77.10;100633.63;5054945;28;20473;-45
2023/07/05 09:45:45;;;;;;;8.45;3.45;;;;;;;17.46;77.65;100659.63;5055283;28;20037;-46
2023/07/05 09:48:12;;;;;;;8.20;2.85;;;;;;;17.56;76.13;100653.53;5055347;28;20385;-46
2023/07/05 09:50:49;;;;;;;8.75;2.58;;;;;;;17.82;76.03;100663.03;5054715;28;20021;-44
2023/07/05 09:53:33;;;;;;;11.90;3.40;;;;;;;17.82;73.16;100670.84;5055406;28;20025;-45
2023/07/05 09:56:17;;;;;;;11.55;2.72;;;;;;;17.92;67.88;100676.88;5053942;28;20033;-45
2023/07/05 09:58:44;;;;;;;16.15;2.60;;;;;;;17.78;67.36;100659.53;5055065;28;20028;-43
2023/07/05 10:01:22;;;;;;;6.03;2.40;;;;;;;17.83;67.05;100685.63;5054941;28;20472;-44
2023/07/05 10:03:56;;;;;;;7.15;2.13;;;;;;;18.05;68.91;100681.22;5054683;28;20032;-46
2023/07/05 10:06:27;;;;;;;8.13;2.17;;;;;;;18.58;67.33;100678.34;5055179;28;20029;-44
2023/07/05 10:08:53;;;;;;;10.88;2.63;;;;;;;18.78;62.88;100685.19;5054820;28;20438;-45
2023/07/05 10:11:28;;;;;;;10.73;2.78;;;;;;;18.41;58.58;100692.34;5054514;28;20025;-43
2023/07/05 10:14:05;;;;;;;10.57;2.63;;;;;;;18.26;60.59;100705.47;5054913;28;20033;-43
2023/07/05 10:16:51;;;;;;;11.63;2.50;;;;;;;17.89;61.94;100729.88;5054638;28;20025;-43
2023/07/05 10:19:22;;;;;;;7.97;1.98;;;;;;;17.56;59.07;100716.06;5055045;28;20025;-49
2023/07/05 10:21:52;;;;;;;11.85;2.22;;;;;;;17.38;59.24;100719.56;5054646;28;20021;-49
2023/07/05 10:24:19;;;;;;;8.73;1.92;;;;;;;17.46;57.76;100729.97;5053844;28;20565;-43
2023/07/05 10:26:48;;;;;;;6.63;1.60;;;;;;;17.43;58.28;100743.88;5054726;28;20112;-44
2023/07/05 10:29:22;;;;;;;7.35;2.00;;;;;;;17.91;59.31;100735.13;5054378;28;20751;-43
2023/07/05 10:31:53;;;;;;;9.23;2.13;;;;;;;18.63;54.26;100754.00;5054278;28;20021;-48
2023/07/05 10:34:23;;;;;;;15.35;1.90;;;;;;;18.52;53.87;100751.44;5054615;28;20112;-44
2023/07/05 10:36:48;;;;;;;13.57;2.42;;;;;;;18.76;54.13;100750.47;5054371;28;20117;-45
2023/07/05 10:39:21;;;;;;;8.43;1.77;;;;;;;19.56;52.98;100749.88;5053853;28;20104;-49
2023/07/05 10:41:48;;;;;;;13.65;1.92;;;;;;;19.55;53.37;100758.59;5054379;28;20052;-43
2023/07/05 10:44:20;;;;;;;;;;;;;;;19.46;52.81;100768.25;5054695;28;20025;-43
2023/07/05 10:46:46;;;;;;;9.75;1.70;;;;;;;19.46;53.44;100768.25;5053542;28;19917;-44
2023/07/05 10:49:17;;;;;;;9.57;2.15;;;;;;;19.55;49.54;100755.13;5054233;28;20025;-49
2023/07/05 10:52:00;;;;;;;7.05;2.58;;;;;;;19.55;49.91;100773.44;5053946;28;20037;-45
2023/07/05 10:54:39;;;;;;;8.55;1.65;;;;;;;19.79;49.07;100767.09;5053999;28;20025;-44
2023/07/05 10:57:25;;;;;;;10.93;1.90;;;;;;;19.97;48.26;100766.06;5054072;28;20351;-45
2023/07/05 11:00:12;;;;;;;8.88;2.00;;;;;;;20.37;48.28;100785.69;5053664;28;20021;-45
2023/07/05 11:02:44;;;;;;;6.97;1.92;;;;;;;20.16;45.75;100776.34;5053657;28;20040;-45
2023/07/05 11:05:19;;;;;;;9.00;1.73;;;;;;;20.43;46.14;100790.00;5051333;28;20472;-44
2023/07/05 11:07:48;;;;;;;8.10;1.95;;;;;;;20.23;45.17;100772.75;5052342;28;20071;-44
2023/07/05 11:10:14;;;;;;;8.65;1.88;;;;;;;20.28;46.03;100786.66;5053806;28;20025;-43
2023/07/05 11:12:41;;;;;;;9.30;2.00;;;;;;;19.94;46.47;100786.19;5052061;28;20037;-44
2023/07/05 11:15:13;;;;;;;5.95;1.65;;;;;;;20.36;46.89;100784.81;5053442;28;20104;-43
2023/07/05 11:17:40;;;;;;;11.10;2.03;;;;;;;20.53;47.16;100797.69;5053573;28;20025;-45
2023/07/05 11:20:34;;;;;;;4.88;1.70;;;;;;;20.82;44.39;100793.84;5053522;28;20082;-49
2023/07/05 11:22:59;;;;;;;14.32;2.22;;;;;;;21.14;42.70;100815.25;5053565;28;20050;-43
2023/07/05 11:25:55;;;;;;;5.55;1.75;;;;;;;21.21;42.77;100824.75;5053228;28;20024;-48